Kremlin, Montana
Current Conditions -  °F | °C
As of 2:53 AM on Monday 22 Dec 2014 (Local Time) from KHVR Reporting Station
Overcast Overcast  
Wind Chill: 22°   Ceiling: 11000
Heat Index: 31°   Visibility: 10mi
Dew Point: 26°   Wind: 10mph
Humidity: 82%   Direction: 250°WSW
Pressure: 29.69"   Gusts: NA
Location:  48.57°N, 110.09°W
Report Text: KHVR 220953Z AUTO 25009KT 10SM SCT060 OVC110 M01/M03 A2969 RMK AO2 SLP073 T10061033 $
Loading
Personal Weather Stations






























Interactive Weather Map New forecast layout! Learn more

10-Day Weather Forecast

Advertisements
Track Severe Weather on mobile